sensor_id;sensor_type;location;lat;lon;timestamp;pressure;altitude;pressure_sealevel;temperature;humidity
66479;BME280;53294;47.912;13.526;2023-02-15T00:01:47;97598.28;;;2.58;64.83
66479;BME280;53294;47.912;13.526;2023-02-15T00:04:19;97601.91;;;2.71;64.41
66479;BME280;53294;47.912;13.526;2023-02-15T00:06:47;97604.47;;;2.84;63.95
66479;BME280;53294;47.912;13.526;2023-02-15T00:09:13;97601.50;;;2.60;64.83
66479;BME280;53294;47.912;13.526;2023-02-15T00:11:41;97595.22;;;2.48;65.33
66479;BME280;53294;47.912;13.526;2023-02-15T00:14:14;97589.84;;;1.76;66.42
66479;BME280;53294;47.912;13.526;2023-02-15T00:16:42;97590.22;;;1.86;66.94
66479;BME280;53294;47.912;13.526;2023-02-15T00:19:11;97588.78;;;2.17;65.92
66479;BME280;53294;47.912;13.526;2023-02-15T00:21:39;97592.19;;;2.44;64.86
66479;BME280;53294;47.912;13.526;2023-02-15T00:24:07;97590.97;;;2.40;64.87
66479;BME280;53294;47.912;13.526;2023-02-15T00:26:35;97587.88;;;2.50;64.61
66479;BME280;53294;47.912;13.526;2023-02-15T00:29:02;97587.25;;;2.61;64.22
66479;BME280;53294;47.912;13.526;2023-02-15T00:31:30;97582.63;;;2.37;64.61
66479;BME280;53294;47.912;13.526;2023-02-15T00:34:06;97582.41;;;2.31;65.13
66479;BME280;53294;47.912;13.526;2023-02-15T00:36:33;97579.91;;;2.57;64.03
66479;BME280;53294;47.912;13.526;2023-02-15T00:39:00;97580.25;;;2.67;63.78
66479;BME280;53294;47.912;13.526;2023-02-15T00:41:27;97577.81;;;2.65;63.33
66479;BME280;53294;47.912;13.526;2023-02-15T00:43:53;97575.72;;;2.81;63.36
66479;BME280;53294;47.912;13.526;2023-02-15T00:46:20;97566.13;;;2.21;65.41
66479;BME280;53294;47.912;13.526;2023-02-15T00:48:47;97572.50;;;1.80;66.80
66479;BME280;53294;47.912;13.526;2023-02-15T00:51:13;97565.78;;;1.77;66.81
66479;BME280;53294;47.912;13.526;2023-02-15T00:53:40;97565.59;;;1.79;66.69
66479;BME280;53294;47.912;13.526;2023-02-15T00:56:06;97557.22;;;2.02;66.00
66479;BME280;53294;47.912;13.526;2023-02-15T00:58:33;97556.41;;;1.88;66.07
66479;BME280;53294;47.912;13.526;2023-02-15T01:01:08;97553.34;;;1.58;67.61
66479;BME280;53294;47.912;13.526;2023-02-15T01:03:35;97549.88;;;1.84;66.21
66479;BME280;53294;47.912;13.526;2023-02-15T01:06:03;97542.94;;;1.83;66.47
66479;BME280;53294;47.912;13.526;2023-02-15T01:08:30;97555.19;;;1.44;68.06
66479;BME280;53294;47.912;13.526;2023-02-15T01:11:06;97545.00;;;1.68;67.19
66479;BME280;53294;47.912;13.526;2023-02-15T01:13:34;97546.19;;;1.92;66.33
66479;BME280;53294;47.912;13.526;2023-02-15T01:16:02;97536.38;;;2.06;65.61
66479;BME280;53294;47.912;13.526;2023-02-15T01:18:30;97538.81;;;2.21;64.95
66479;BME280;53294;47.912;13.526;2023-02-15T01:20:57;97538.38;;;2.30;64.75
66479;BME280;53294;47.912;13.526;2023-02-15T01:23:23;97534.31;;;2.21;65.03
66479;BME280;53294;47.912;13.526;2023-02-15T01:25:50;97527.88;;;1.70;66.78
66479;BME280;53294;47.912;13.526;2023-02-15T01:28:17;97535.22;;;1.75;66.90
66479;BME280;53294;47.912;13.526;2023-02-15T01:30:43;97532.97;;;1.58;67.43
66479;BME280;53294;47.912;13.526;2023-02-15T01:33:10;97523.38;;;1.84;66.52
66479;BME280;53294;47.912;13.526;2023-02-15T01:35:46;97521.91;;;2.02;65.50
66479;BME280;53294;47.912;13.526;2023-02-15T01:38:13;97516.44;;;1.96;65.95
66479;BME280;53294;47.912;13.526;2023-02-15T01:40:41;97516.44;;;1.83;66.29
66479;BME280;53294;47.912;13.526;2023-02-15T01:43:11;97514.84;;;1.82;66.47
66479;BME280;53294;47.912;13.526;2023-02-15T01:45:39;97514.63;;;1.84;66.09
66479;BME280;53294;47.912;13.526;2023-02-15T01:48:17;97516.84;;;1.80;66.44
66479;BME280;53294;47.912;13.526;2023-02-15T01:50:51;97506.69;;;1.84;66.32
66479;BME280;53294;47.912;13.526;2023-02-15T01:53:24;97502.19;;;1.84;66.22
66479;BME280;53294;47.912;13.526;2023-02-15T01:56:13;97501.53;;;1.95;65.88
66479;BME280;53294;47.912;13.526;2023-02-15T01:58:42;97493.63;;;1.82;65.98
66479;BME280;53294;47.912;13.526;2023-02-15T02:01:09;97491.59;;;1.77;66.16
66479;BME280;53294;47.912;13.526;2023-02-15T02:06:25;97493.97;;;2.06;65.31
66479;BME280;53294;47.912;13.526;2023-02-15T02:08:53;97491.09;;;2.21;64.81
66479;BME280;53294;47.912;13.526;2023-02-15T02:11:21;97495.97;;;2.17;64.87
66479;BME280;53294;47.912;13.526;2023-02-15T02:13:50;97487.88;;;1.98;65.33
66479;BME280;53294;47.912;13.526;2023-02-15T02:16:25;97481.13;;;2.16;65.50
66479;BME280;53294;47.912;13.526;2023-02-15T02:39:04;97466.22;;;2.15;64.48
66479;BME280;53294;47.912;13.526;2023-02-15T02:46:54;97462.88;;;1.68;65.55
66479;BME280;53294;47.912;13.526;2023-02-15T02:49:35;97454.75;;;1.63;65.86
66479;BME280;53294;47.912;13.526;2023-02-15T02:52:05;97462.69;;;1.63;65.94
66479;BME280;53294;47.912;13.526;2023-02-15T02:54:34;97461.84;;;1.69;65.75
66479;BME280;53294;47.912;13.526;2023-02-15T02:57:05;97461.31;;;1.20;66.72
66479;BME280;53294;47.912;13.526;2023-02-15T02:59:39;97467.00;;;1.37;66.15
66479;BME280;53294;47.912;13.526;2023-02-15T03:02:13;97457.38;;;1.76;64.83
66479;BME280;53294;47.912;13.526;2023-02-15T03:04:47;97453.25;;;1.80;64.46
66479;BME280;53294;47.912;13.526;2023-02-15T03:07:26;97456.91;;;1.92;63.99
66479;BME280;53294;47.912;13.526;2023-02-15T03:09:57;97454.88;;;1.88;63.97
66479;BME280;53294;47.912;13.526;2023-02-15T03:12:30;97454.06;;;1.87;63.96
66479;BME280;53294;47.912;13.526;2023-02-15T03:15:31;97453.28;;;1.73;64.43
66479;BME280;53294;47.912;13.526;2023-02-15T03:18:22;97447.94;;;1.93;63.65
66479;BME280;53294;47.912;13.526;2023-02-15T03:20:52;97450.41;;;1.88;63.63
66479;BME280;53294;47.912;13.526;2023-02-15T03:23:23;97443.84;;;1.91;63.82
66479;BME280;53294;47.912;13.526;2023-02-15T03:25:59;97444.31;;;1.81;64.41
66479;BME280;53294;47.912;13.526;2023-02-15T03:28:40;97448.78;;;1.87;64.40
66479;BME280;53294;47.912;13.526;2023-02-15T03:31:09;97440.22;;;1.85;63.81
66479;BME280;53294;47.912;13.526;2023-02-15T03:33:43;97445.66;;;2.04;63.59
66479;BME280;53294;47.912;13.526;2023-02-15T03:36:21;97440.59;;;2.02;63.37
66479;BME280;53294;47.912;13.526;2023-02-15T03:38:56;97436.91;;;1.96;63.52
66479;BME280;53294;47.912;13.526;2023-02-15T03:41:34;97442.63;;;1.93;63.83
66479;BME280;53294;47.912;13.526;2023-02-15T03:44:07;97451.66;;;1.79;64.10
66479;BME280;53294;47.912;13.526;2023-02-15T03:46:47;97449.56;;;1.88;64.10
66479;BME280;53294;47.912;13.526;2023-02-15T03:49:26;97446.94;;;1.94;64.04
66479;BME280;53294;47.912;13.526;2023-02-15T03:51:56;97444.31;;;1.68;64.97
66479;BME280;53294;47.912;13.526;2023-02-15T03:54:28;97450.88;;;1.65;65.30
66479;BME280;53294;47.912;13.526;2023-02-15T04:00:09;97445.13;;;1.75;64.39
66479;BME280;53294;47.912;13.526;2023-02-15T04:03:09;97441.50;;;1.63;64.53
66479;BME280;53294;47.912;13.526;2023-02-15T04:05:37;97446.66;;;1.31;65.95
66479;BME280;53294;47.912;13.526;2023-02-15T04:08:04;97437.47;;;1.27;65.81
66479;BME280;53294;47.912;13.526;2023-02-15T04:10:31;97438.69;;;1.31;65.63
66479;BME280;53294;47.912;13.526;2023-02-15T04:13:16;97436.78;;;1.65;64.22
66479;BME280;53294;47.912;13.526;2023-02-15T04:15:42;97439.41;;;1.78;63.57
66479;BME280;53294;47.912;13.526;2023-02-15T04:18:39;97432.53;;;1.64;64.15
66479;BME280;53294;47.912;13.526;2023-02-15T04:21:26;97437.22;;;1.55;64.50
66479;BME280;53294;47.912;13.526;2023-02-15T04:24:11;97436.84;;;0.98;66.54
66479;BME280;53294;47.912;13.526;2023-02-15T04:26:57;97444.78;;;0.98;66.82
66479;BME280;53294;47.912;13.526;2023-02-15T04:29:25;97440.34;;;1.18;65.79
66479;BME280;53294;47.912;13.526;2023-02-15T04:31:55;97438.28;;;1.20;65.39
66479;BME280;53294;47.912;13.526;2023-02-15T04:34:22;97436.59;;;1.59;64.01
66479;BME280;53294;47.912;13.526;2023-02-15T04:36:49;97436.59;;;1.73;63.47
66479;BME280;53294;47.912;13.526;2023-02-15T04:39:17;97442.72;;;1.67;63.59
66479;BME280;53294;47.912;13.526;2023-02-15T04:41:45;97430.88;;;1.69;63.27
66479;BME280;53294;47.912;13.526;2023-02-15T04:44:11;97438.25;;;1.54;63.86
66479;BME280;53294;47.912;13.526;2023-02-15T04:46:38;97436.19;;;1.63;63.69
66479;BME280;53294;47.912;13.526;2023-02-15T04:49:05;97436.03;;;1.44;64.21
66479;BME280;53294;47.912;13.526;2023-02-15T04:51:31;97438.25;;;1.47;64.29
66479;BME280;53294;47.912;13.526;2023-02-15T04:53:58;97435.66;;;1.34;64.58
66479;BME280;53294;47.912;13.526;2023-02-15T04:56:25;97436.25;;;1.22;64.85
66479;BME280;53294;47.912;13.526;2023-02-15T04:58:51;97439.94;;;1.21;65.22
66479;BME280;53294;47.912;13.526;2023-02-15T05:01:18;97438.47;;;1.25;64.85
66479;BME280;53294;47.912;13.526;2023-02-15T05:03:44;97444.41;;;1.14;65.54
66479;BME280;53294;47.912;13.526;2023-02-15T05:06:11;97438.69;;;1.31;64.83
66479;BME280;53294;47.912;13.526;2023-02-15T05:08:38;97445.56;;;1.58;63.71
66479;BME280;53294;47.912;13.526;2023-02-15T05:11:04;97447.06;;;1.28;64.84
66479;BME280;53294;47.912;13.526;2023-02-15T05:13:31;97441.13;;;1.25;64.81
66479;BME280;53294;47.912;13.526;2023-02-15T05:15:57;97446.84;;;1.36;64.63
66479;BME280;53294;47.912;13.526;2023-02-15T05:18:24;97446.22;;;0.80;66.30
66479;BME280;53294;47.912;13.526;2023-02-15T05:20:51;97449.84;;;0.66;66.93
66479;BME280;53294;47.912;13.526;2023-02-15T05:23:18;97453.25;;;0.46;67.67
66479;BME280;53294;47.912;13.526;2023-02-15T05:25:48;97450.59;;;0.33;68.03
66479;BME280;53294;47.912;13.526;2023-02-15T05:28:34;97453.25;;;0.40;68.04
66479;BME280;53294;47.912;13.526;2023-02-15T05:31:12;97450.06;;;0.71;66.88
66479;BME280;53294;47.912;13.526;2023-02-15T05:33:40;97447.22;;;0.79;66.46
66479;BME280;53294;47.912;13.526;2023-02-15T05:36:07;97455.38;;;0.84;65.70
66479;BME280;53294;47.912;13.526;2023-02-15T05:38:34;97454.16;;;0.87;65.88
66479;BME280;53294;47.912;13.526;2023-02-15T05:41:04;97451.94;;;1.17;64.71
66479;BME280;53294;47.912;13.526;2023-02-15T05:43:31;97450.94;;;1.18;64.69
66479;BME280;53294;47.912;13.526;2023-02-15T05:45:58;97460.25;;;0.81;65.91
66479;BME280;53294;47.912;13.526;2023-02-15T05:48:27;97459.47;;;1.00;65.29
66479;BME280;53294;47.912;13.526;2023-02-15T05:51:02;97453.97;;;1.29;64.72
66479;BME280;53294;47.912;13.526;2023-02-15T05:53:30;97463.75;;;1.41;63.90
66479;BME280;53294;47.912;13.526;2023-02-15T05:55:58;97456.41;;;1.37;63.82
66479;BME280;53294;47.912;13.526;2023-02-15T05:58:29;97457.22;;;1.24;64.52
66479;BME280;53294;47.912;13.526;2023-02-15T06:00:56;97463.97;;;1.20;64.86
66479;BME280;53294;47.912;13.526;2023-02-15T06:03:24;97466.78;;;1.05;65.15
66479;BME280;53294;47.912;13.526;2023-02-15T06:05:52;97475.25;;;0.60;66.74
66479;BME280;53294;47.912;13.526;2023-02-15T06:08:19;97481.75;;;0.51;67.22
66479;BME280;53294;47.912;13.526;2023-02-15T06:10:46;97478.38;;;0.91;65.54
66479;BME280;53294;47.912;13.526;2023-02-15T06:13:12;97477.97;;;1.07;64.88
66479;BME280;53294;47.912;13.526;2023-02-15T06:15:39;97485.28;;;0.78;65.99
66479;BME280;53294;47.912;13.526;2023-02-15T06:18:06;97490.94;;;0.00;68.72
66479;BME280;53294;47.912;13.526;2023-02-15T06:20:32;97494.47;;;-0.21;69.31
66479;BME280;53294;47.912;13.526;2023-02-15T06:22:59;97495.84;;;-0.25;70.18
66479;BME280;53294;47.912;13.526;2023-02-15T06:25:26;97502.06;;;-0.40;71.02
66479;BME280;53294;47.912;13.526;2023-02-15T06:27:52;97498.53;;;-0.19;69.46
66479;BME280;53294;47.912;13.526;2023-02-15T06:30:19;97497.09;;;0.21;67.68
66479;BME280;53294;47.912;13.526;2023-02-15T06:32:46;97496.22;;;0.07;67.71
66479;BME280;53294;47.912;13.526;2023-02-15T06:35:12;97500.38;;;0.23;67.42
66479;BME280;53294;47.912;13.526;2023-02-15T06:37:39;97498.38;;;0.38;67.02
66479;BME280;53294;47.912;13.526;2023-02-15T06:40:06;97498.47;;;0.65;66.14
66479;BME280;53294;47.912;13.526;2023-02-15T06:42:34;97502.16;;;0.77;65.85
66479;BME280;53294;47.912;13.526;2023-02-15T06:45:00;97508.66;;;0.68;66.31
66479;BME280;53294;47.912;13.526;2023-02-15T06:47:27;97514.72;;;0.62;66.62
66479;BME280;53294;47.912;13.526;2023-02-15T06:49:54;97522.25;;;-0.25;69.60
66479;BME280;53294;47.912;13.526;2023-02-15T06:52:20;97531.13;;;-0.61;71.22
66479;BME280;53294;47.912;13.526;2023-02-15T06:54:47;97531.91;;;-0.11;69.13
66479;BME280;53294;47.912;13.526;2023-02-15T06:57:14;97531.72;;;-0.09;69.21
66479;BME280;53294;47.912;13.526;2023-02-15T06:59:40;97527.19;;;0.20;67.97
66479;BME280;53294;47.912;13.526;2023-02-15T07:02:08;97534.63;;;0.44;67.09
66479;BME280;53294;47.912;13.526;2023-02-15T07:04:35;97539.97;;;0.58;66.94
66479;BME280;53294;47.912;13.526;2023-02-15T07:07:02;97539.59;;;0.74;66.30
66479;BME280;53294;47.912;13.526;2023-02-15T07:09:29;97540.84;;;0.78;66.19
66479;BME280;53294;47.912;13.526;2023-02-15T07:11:55;97535.16;;;0.81;66.17
66479;BME280;53294;47.912;13.526;2023-02-15T07:14:41;97543.13;;;1.01;65.85
66479;BME280;53294;47.912;13.526;2023-02-15T07:17:07;97539.28;;;1.11;65.27
66479;BME280;53294;47.912;13.526;2023-02-15T07:19:54;97544.72;;;0.89;66.08
66479;BME280;53294;47.912;13.526;2023-02-15T07:22:21;97544.50;;;0.77;66.55
66479;BME280;53294;47.912;13.526;2023-02-15T07:24:48;97548.44;;;0.46;67.79
66479;BME280;53294;47.912;13.526;2023-02-15T07:27:15;97547.63;;;0.46;67.71
66479;BME280;53294;47.912;13.526;2023-02-15T07:29:42;97544.03;;;0.60;67.12
66479;BME280;53294;47.912;13.526;2023-02-15T07:32:08;97540.31;;;0.48;67.26
66479;BME280;53294;47.912;13.526;2023-02-15T07:34:35;97536.94;;;0.61;67.23
66479;BME280;53294;47.912;13.526;2023-02-15T07:37:02;97537.94;;;0.60;67.28
66479;BME280;53294;47.912;13.526;2023-02-15T07:39:28;97539.00;;;0.72;67.05
66479;BME280;53294;47.912;13.526;2023-02-15T07:41:55;97534.75;;;0.84;66.61
66479;BME280;53294;47.912;13.526;2023-02-15T07:44:22;97532.72;;;0.86;66.47
66479;BME280;53294;47.912;13.526;2023-02-15T07:46:48;97533.91;;;0.84;66.55
66479;BME280;53294;47.912;13.526;2023-02-15T07:49:15;97529.47;;;0.98;65.70
66479;BME280;53294;47.912;13.526;2023-02-15T07:51:41;97532.75;;;1.00;66.14
66479;BME280;53294;47.912;13.526;2023-02-15T07:54:08;97525.00;;;1.12;65.94
66479;BME280;53294;47.912;13.526;2023-02-15T07:56:35;97543.13;;;1.15;65.91
66479;BME280;53294;47.912;13.526;2023-02-15T07:59:02;97538.47;;;1.23;65.71
66479;BME280;53294;47.912;13.526;2023-02-15T08:01:33;97531.16;;;1.12;66.48
66479;BME280;53294;47.912;13.526;2023-02-15T08:04:02;97534.41;;;1.21;66.22
66479;BME280;53294;47.912;13.526;2023-02-15T08:06:31;97532.38;;;1.23;66.21
66479;BME280;53294;47.912;13.526;2023-02-15T08:08:58;97528.91;;;1.09;66.76
66479;BME280;53294;47.912;13.526;2023-02-15T08:11:31;97531.50;;;0.96;67.49
66479;BME280;53294;47.912;13.526;2023-02-15T08:14:12;97527.28;;;1.21;66.71
66479;BME280;53294;47.912;13.526;2023-02-15T08:19:15;97524.63;;;1.48;65.86
66479;BME280;53294;47.912;13.526;2023-02-15T08:21:50;97528.47;;;1.05;67.19
66479;BME280;53294;47.912;13.526;2023-02-15T08:24:20;97531.72;;;0.87;68.00
66479;BME280;53294;47.912;13.526;2023-02-15T08:26:48;97526.63;;;0.93;68.05
66479;BME280;53294;47.912;13.526;2023-02-15T08:29:16;97522.56;;;1.10;67.47
66479;BME280;53294;47.912;13.526;2023-02-15T08:31:43;97526.69;;;1.33;66.72
66479;BME280;53294;47.912;13.526;2023-02-15T08:34:13;97526.47;;;1.48;66.20
66479;BME280;53294;47.912;13.526;2023-02-15T08:36:41;97518.72;;;1.06;67.41
66479;BME280;53294;47.912;13.526;2023-02-15T08:39:08;97517.09;;;1.18;67.19
66479;BME280;53294;47.912;13.526;2023-02-15T08:41:35;97520.97;;;1.09;67.32
66479;BME280;53294;47.912;13.526;2023-02-15T08:44:05;97508.94;;;1.33;67.20
66479;BME280;53294;47.912;13.526;2023-02-15T08:46:34;97509.56;;;1.49;66.47
66479;BME280;53294;47.912;13.526;2023-02-15T08:49:02;97507.53;;;1.57;66.64
66479;BME280;53294;47.912;13.526;2023-02-15T08:51:31;97506.13;;;1.41;67.26
66479;BME280;53294;47.912;13.526;2023-02-15T08:54:00;97503.84;;;1.32;67.73
66479;BME280;53294;47.912;13.526;2023-02-15T08:56:31;97498.56;;;1.18;68.53
66479;BME280;53294;47.912;13.526;2023-02-15T08:58:59;97504.03;;;0.97;69.28
66479;BME280;53294;47.912;13.526;2023-02-15T09:01:28;97499.78;;;1.22;68.57
66479;BME280;53294;47.912;13.526;2023-02-15T09:03:58;97503.03;;;1.38;68.04
66479;BME280;53294;47.912;13.526;2023-02-15T09:06:25;97497.34;;;1.54;67.55
66479;BME280;53294;47.912;13.526;2023-02-15T09:08:53;97492.22;;;1.73;67.49
66479;BME280;53294;47.912;13.526;2023-02-15T09:11:25;97497.69;;;1.91;66.76
66479;BME280;53294;47.912;13.526;2023-02-15T09:14:00;97496.41;;;2.07;66.58
66479;BME280;53294;47.912;13.526;2023-02-15T09:16:30;97499.25;;;2.12;66.29
66479;BME280;53294;47.912;13.526;2023-02-15T09:18:59;97489.88;;;2.17;66.33
66479;BME280;53294;47.912;13.526;2023-02-15T09:21:28;97498.63;;;2.17;66.54
66479;BME280;53294;47.912;13.526;2023-02-15T09:23:57;97495.66;;;1.80;68.41
66479;BME280;53294;47.912;13.526;2023-02-15T09:26:27;97495.97;;;2.17;66.85
66479;BME280;53294;47.912;13.526;2023-02-15T09:28:56;97485.19;;;2.12;66.90
66479;BME280;53294;47.912;13.526;2023-02-15T09:31:26;97490.28;;;2.13;67.16
66479;BME280;53294;47.912;13.526;2023-02-15T09:33:53;97485.81;;;2.07;67.55
66479;BME280;53294;47.912;13.526;2023-02-15T09:36:26;97480.84;;;2.31;66.82
66479;BME280;53294;47.912;13.526;2023-02-15T09:39:07;97482.59;;;2.44;66.39
66479;BME280;53294;47.912;13.526;2023-02-15T10:00:36;97482.13;;;2.15;68.78
66479;BME280;53294;47.912;13.526;2023-02-15T10:08:47;97469.28;;;2.57;67.97
66479;BME280;53294;47.912;13.526;2023-02-15T10:28:04;97455.28;;;3.32;66.28
66479;BME280;53294;47.912;13.526;2023-02-15T10:33:03;97454.41;;;2.88;67.31
66479;BME280;53294;47.912;13.526;2023-02-15T10:39:12;97453.34;;;3.21;66.38
66479;BME280;53294;47.912;13.526;2023-02-15T10:42:07;97445.97;;;3.23;66.65
66479;BME280;53294;47.912;13.526;2023-02-15T10:48:16;97445.22;;;3.16;66.61
66479;BME280;53294;47.912;13.526;2023-02-15T10:56:20;97438.66;;;3.44;65.97
66479;BME280;53294;47.912;13.526;2023-02-15T11:01:48;97442.03;;;3.51;66.35
66479;BME280;53294;47.912;13.526;2023-02-15T11:06:48;97434.50;;;2.72;67.86
66479;BME280;53294;47.912;13.526;2023-02-15T11:09:20;97434.41;;;2.85;68.57
66479;BME280;53294;47.912;13.526;2023-02-15T11:11:51;97425.88;;;3.09;67.89
66479;BME280;53294;47.912;13.526;2023-02-15T11:14:39;97423.53;;;3.44;67.05
66479;BME280;53294;47.912;13.526;2023-02-15T11:17:14;97418.16;;;3.26;67.05
66479;BME280;53294;47.912;13.526;2023-02-15T11:22:24;97416.97;;;2.96;67.79
66479;BME280;53294;47.912;13.526;2023-02-15T11:24:51;97412.75;;;3.14;67.28
66479;BME280;53294;47.912;13.526;2023-02-15T11:27:24;97408.69;;;2.86;67.61
66479;BME280;53294;47.912;13.526;2023-02-15T11:30:12;97420.69;;;2.25;70.72
66479;BME280;53294;47.912;13.526;2023-02-15T11:32:43;97414.31;;;2.32;70.35
66479;BME280;53294;47.912;13.526;2023-02-15T11:37:45;97414.47;;;2.06;71.17
66479;BME280;53294;47.912;13.526;2023-02-15T11:42:49;97401.53;;;2.61;70.34
66479;BME280;53294;47.912;13.526;2023-02-15T11:45:29;97397.75;;;2.76;70.10
66479;BME280;53294;47.912;13.526;2023-02-15T11:47:57;97398.59;;;3.20;68.00
66479;BME280;53294;47.912;13.526;2023-02-15T11:50:30;97390.31;;;3.35;67.77
66479;BME280;53294;47.912;13.526;2023-02-15T11:53:16;97390.22;;;3.41;67.32
66479;BME280;53294;47.912;13.526;2023-02-15T11:55:44;97384.91;;;3.41;67.55
66479;BME280;53294;47.912;13.526;2023-02-15T12:01:10;97391.78;;;3.68;67.28
66479;BME280;53294;47.912;13.526;2023-02-15T12:03:43;97390.59;;;3.01;69.06
66479;BME280;53294;47.912;13.526;2023-02-15T12:08:48;97384.41;;;2.82;69.48
66479;BME280;53294;47.912;13.526;2023-02-15T12:11:25;97388.50;;;2.21;72.17
66479;BME280;53294;47.912;13.526;2023-02-15T12:13:58;97381.75;;;2.25;73.27
66479;BME280;53294;47.912;13.526;2023-02-15T12:16:27;97374.97;;;2.29;72.47
66479;BME280;53294;47.912;13.526;2023-02-15T12:18:59;97377.88;;;2.53;71.91
66479;BME280;53294;47.912;13.526;2023-02-15T12:21:29;97368.47;;;2.57;71.70
66479;BME280;53294;47.912;13.526;2023-02-15T12:24:00;97373.72;;;2.64;70.99
66479;BME280;53294;47.912;13.526;2023-02-15T12:26:34;97366.97;;;2.68;71.07
66479;BME280;53294;47.912;13.526;2023-02-15T12:29:09;97363.66;;;2.98;70.90
66479;BME280;53294;47.912;13.526;2023-02-15T12:31:40;97355.66;;;3.48;69.49
66479;BME280;53294;47.912;13.526;2023-02-15T12:34:30;97350.03;;;3.75;68.07
66479;BME280;53294;47.912;13.526;2023-02-15T12:37:02;97348.47;;;3.49;68.67
66479;BME280;53294;47.912;13.526;2023-02-15T12:39:34;97344.31;;;3.16;69.58
66479;BME280;53294;47.912;13.526;2023-02-15T12:42:04;97336.81;;;3.31;69.52
66479;BME280;53294;47.912;13.526;2023-02-15T12:44:33;97333.41;;;3.42;69.21
66479;BME280;53294;47.912;13.526;2023-02-15T12:47:05;97327.78;;;3.14;69.65
66479;BME280;53294;47.912;13.526;2023-02-15T12:49:34;97323.38;;;3.45;69.32
66479;BME280;53294;47.912;13.526;2023-02-15T12:52:24;97318.25;;;3.80;68.66
66479;BME280;53294;47.912;13.526;2023-02-15T12:54:51;97312.25;;;4.03;67.63
66479;BME280;53294;47.912;13.526;2023-02-15T12:59:53;97311.84;;;4.30;67.26
66479;BME280;53294;47.912;13.526;2023-02-15T13:02:26;97313.31;;;4.14;66.96
66479;BME280;53294;47.912;13.526;2023-02-15T13:04:54;97321.59;;;3.38;68.55
66479;BME280;53294;47.912;13.526;2023-02-15T13:07:24;97316.13;;;3.15;70.67
66479;BME280;53294;47.912;13.526;2023-02-15T13:09:51;97311.72;;;3.46;69.55
66479;BME280;53294;47.912;13.526;2023-02-15T13:12:28;97315.19;;;2.84;70.87
66479;BME280;53294;47.912;13.526;2023-02-15T13:15:00;97309.25;;;2.63;72.14
66479;BME280;53294;47.912;13.526;2023-02-15T13:17:32;97308.03;;;3.10;70.79
66479;BME280;53294;47.912;13.526;2023-02-15T13:20:04;97303.72;;;2.90;71.92
66479;BME280;53294;47.912;13.526;2023-02-15T13:22:38;97293.56;;;3.24;70.41
66479;BME280;53294;47.912;13.526;2023-02-15T13:27:51;97297.88;;;2.56;72.53
66479;BME280;53294;47.912;13.526;2023-02-15T13:30:38;97284.22;;;2.78;71.44
66479;BME280;53294;47.912;13.526;2023-02-15T13:33:24;97278.59;;;3.11;70.28
66479;BME280;53294;47.912;13.526;2023-02-15T13:36:16;97274.75;;;3.26;69.64
66479;BME280;53294;47.912;13.526;2023-02-15T13:38:57;97263.31;;;3.62;68.51
66479;BME280;53294;47.912;13.526;2023-02-15T13:41:32;97258.97;;;3.80;68.10
66479;BME280;53294;47.912;13.526;2023-02-15T13:44:18;97258.91;;;3.37;70.22
66479;BME280;53294;47.912;13.526;2023-02-15T13:47:03;97256.66;;;3.71;69.22
66479;BME280;53294;47.912;13.526;2023-02-15T13:52:24;97252.84;;;3.49;69.70
66479;BME280;53294;47.912;13.526;2023-02-15T13:55:46;97253.91;;;3.90;68.55
66479;BME280;53294;47.912;13.526;2023-02-15T14:06:14;97246.34;;;4.05;67.44
66479;BME280;53294;47.912;13.526;2023-02-15T14:09:03;97247.84;;;3.40;70.24
66479;BME280;53294;47.912;13.526;2023-02-15T14:11:40;97252.72;;;3.25;70.86
66479;BME280;53294;47.912;13.526;2023-02-15T14:17:09;97253.13;;;3.59;69.33
66479;BME280;53294;47.912;13.526;2023-02-15T14:19:45;97257.16;;;3.62;69.04
66479;BME280;53294;47.912;13.526;2023-02-15T14:22:34;97243.22;;;3.66;69.38
66479;BME280;53294;47.912;13.526;2023-02-15T14:25:43;97242.47;;;3.89;68.02
66479;BME280;53294;47.912;13.526;2023-02-15T14:28:12;97251.44;;;3.46;69.61
66479;BME280;53294;47.912;13.526;2023-02-15T14:30:45;97241.56;;;3.35;70.23
66479;BME280;53294;47.912;13.526;2023-02-15T14:35:40;97255.59;;;3.05;71.00
66479;BME280;53294;47.912;13.526;2023-02-15T14:41:16;97248.13;;;3.32;69.67
66479;BME280;53294;47.912;13.526;2023-02-15T14:47:10;97238.34;;;3.93;67.61
66479;BME280;53294;47.912;13.526;2023-02-15T14:49:39;97235.69;;;3.63;68.22
66479;BME280;53294;47.912;13.526;2023-02-15T14:52:08;97251.94;;;2.81;71.42
66479;BME280;53294;47.912;13.526;2023-02-15T14:59:50;97244.78;;;3.37;69.23
66479;BME280;53294;47.912;13.526;2023-02-15T15:02:42;97238.44;;;3.56;68.37
66479;BME280;53294;47.912;13.526;2023-02-15T15:05:24;97247.53;;;3.12;70.30
66479;BME280;53294;47.912;13.526;2023-02-15T15:07:58;97247.84;;;3.40;69.13
66479;BME280;53294;47.912;13.526;2023-02-15T15:12:54;97243.22;;;3.66;67.82
66479;BME280;53294;47.912;13.526;2023-02-15T15:18:06;97243.94;;;3.73;67.97
66479;BME280;53294;47.912;13.526;2023-02-15T15:20:45;97238.00;;;3.59;68.76
66479;BME280;53294;47.912;13.526;2023-02-15T15:25:47;97242.38;;;3.96;67.02
66479;BME280;53294;47.912;13.526;2023-02-15T15:41:41;97240.84;;;2.91;71.45
66479;BME280;53294;47.912;13.526;2023-02-15T15:45:30;97241.75;;;3.52;69.43
66479;BME280;53294;47.912;13.526;2023-02-15T15:50:04;97231.50;;;3.86;67.02
66479;BME280;53294;47.912;13.526;2023-02-15T15:52:37;97235.25;;;4.08;66.61
66479;BME280;53294;47.912;13.526;2023-02-15T15:55:15;97233.97;;;3.69;68.49
66479;BME280;53294;47.912;13.526;2023-02-15T15:57:44;97233.75;;;3.70;68.29
66479;BME280;53294;47.912;13.526;2023-02-15T16:00:33;97229.38;;;3.46;69.35
66479;BME280;53294;47.912;13.526;2023-02-15T16:03:01;97230.03;;;3.41;69.17
66479;BME280;53294;47.912;13.526;2023-02-15T16:05:34;97240.88;;;3.58;68.54
66479;BME280;53294;47.912;13.526;2023-02-15T16:08:01;97246.44;;;3.99;67.17
66479;BME280;53294;47.912;13.526;2023-02-15T16:10:30;97242.84;;;3.63;67.57